Terminal Aerodrome Forecast
Issued by NWS

Home | Current Version | Previous Version | Text Only | Print | Product List | Glossary On
Versions: 1 2 3 4 5 6 7 8 9 10 11 12 13 14 15 16 17 18 19 20 21 22 23 24 25 26 27
000
FTUS43 KABR 041700
TAFATY
TAF
KATY 041735Z 0418/0518 33018G25KT P6SM BKN025
      TEMPO 0418/0420 5SM -SHSN BKN020
     FM042300 33012KT P6SM SKC
     FM050300 VRB06KT P6SM SKC
     FM051400 19010KT P6SM SKC=

USA.gov is the U.S. government's official web portal to all federal, state and local government web resources and services.